TimeMDT,TemperatureF,Dew PointF,Humidity,Sea Level PressureIn,VisibilityMPH,Wind Direction,Wind SpeedMPH,Gust SpeedMPH,PrecipitationIn,Events,Conditions,WindDirDegrees,DateUTC
12:15 AM,32.0,21.9,66,30.26,10.0,ENE,8.1,-,N/A,,Clear,70,2012-10-05 06:15:00
12:35 AM,31.1,22.1,69,30.26,10.0,ENE,9.2,-,N/A,,Clear,70,2012-10-05 06:35:00
12:55 AM,30.7,22.3,71,30.24,10.0,ENE,10.4,-,N/A,,Clear,60,2012-10-05 06:55:00
1:15 AM,31.8,23.2,70,30.24,10.0,East,13.8,-,N/A,,Clear,80,2012-10-05 07:15:00
1:35 AM,32.4,23.2,69,30.24,10.0,ENE,11.5,-,N/A,,Clear,70,2012-10-05 07:35:00
1:55 AM,31.6,23.0,70,30.24,10.0,ENE,11.5,-,N/A,,Clear,70,2012-10-05 07:55:00
2:15 AM,31.1,23.4,73,30.22,10.0,ENE,12.7,-,N/A,,Clear,70,2012-10-05 08:15:00
2:35 AM,31.1,23.5,74,30.25,10.0,NE,10.4,-,N/A,,Clear,40,2012-10-05 08:35:00
2:55 AM,31.8,23.9,73,30.24,10.0,ENE,11.5,-,N/A,,Scattered Clouds,70,2012-10-05 08:55:00
3:15 AM,32.2,24.4,73,30.24,10.0,ENE,13.8,-,N/A,,Overcast,70,2012-10-05 09:15:00
3:35 AM,32.5,24.6,73,30.25,10.0,ENE,12.7,-,N/A,,Overcast,70,2012-10-05 09:35:00
3:55 AM,32.9,24.8,72,30.25,10.0,East,15.0,-,N/A,,Overcast,80,2012-10-05 09:55:00
4:15 AM,32.9,25.2,73,30.25,10.0,East,12.7,-,N/A,,Overcast,80,2012-10-05 10:15:00
4:35 AM,32.9,25.2,73,30.22,10.0,East,16.1,-,N/A,,Overcast,100,2012-10-05 10:35:00
4:55 AM,33.1,25.3,73,30.22,10.0,East,13.8,20.7,N/A,,Overcast,100,2012-10-05 10:55:00
5:15 AM,34.0,25.5,71,30.22,10.0,ESE,15.0,-,N/A,,Overcast,120,2012-10-05 11:15:00
5:35 AM,34.5,25.5,70,30.22,10.0,ESE,16.1,-,N/A,,Overcast,120,2012-10-05 11:35:00
5:55 AM,34.9,25.9,70,30.21,10.0,SE,12.7,-,N/A,,Overcast,130,2012-10-05 11:55:00
6:15 AM,34.7,27.3,74,30.20,10.0,SE,16.1,21.9,N/A,,Overcast,130,2012-10-05 12:15:00
6:55 AM,33.3,30.2,89,30.20,10.0,SE,19.6,26.5,N/A,,Overcast,130,2012-10-05 12:55:00
7:35 AM,33.1,30.2,89,30.19,10.0,SE,18.4,23.0,N/A,,Overcast,130,2012-10-05 13:35:00
7:55 AM,33.8,30.2,87,30.24,10.0,SE,8.1,-,N/A,,Overcast,130,2012-10-05 13:55:00
8:35 AM,34.7,30.6,85,30.26,10.0,East,6.9,-,N/A,,Overcast,100,2012-10-05 14:35:00
8:55 AM,35.2,30.2,82,30.26,10.0,ESE,8.1,-,N/A,,Overcast,120,2012-10-05 14:55:00
9:15 AM,35.6,30.0,80,30.25,10.0,ESE,13.8,-,N/A,,Overcast,120,2012-10-05 15:15:00
9:35 AM,36.5,30.6,79,30.26,10.0,ESE,11.5,18.4,N/A,,Overcast,120,2012-10-05 15:35:00
9:55 AM,37.6,30.4,75,30.26,10.0,ESE,12.7,17.3,N/A,,Overcast,110,2012-10-05 15:55:00
10:15 AM,37.6,30.2,75,30.26,10.0,East,9.2,-,N/A,,Overcast,100,2012-10-05 16:15:00
10:55 AM,38.3,30.2,73,30.26,10.0,East,9.2,-,N/A,,Overcast,90,2012-10-05 16:55:00
11:15 AM,38.5,30.6,73,30.27,10.0,East,9.2,-,N/A,,Overcast,80,2012-10-05 17:15:00
11:35 AM,38.5,30.7,74,30.27,10.0,East,13.8,-,N/A,,Overcast,80,2012-10-05 17:35:00
11:55 AM,38.5,31.1,75,30.27,10.0,East,13.8,-,N/A,,Overcast,90,2012-10-05 17:55:00
12:15 PM,38.5,30.9,74,30.26,10.0,East,13.8,-,N/A,,Overcast,80,2012-10-05 18:15:00
12:35 PM,38.3,31.1,75,30.26,10.0,East,12.7,-,N/A,,Overcast,80,2012-10-05 18:35:00
12:55 PM,37.8,31.3,77,30.26,10.0,East,12.7,-,N/A,,Overcast,80,2012-10-05 18:55:00
1:15 PM,37.0,31.5,80,30.26,10.0,East,12.7,-,N/A,,Overcast,80,2012-10-05 19:15:00
1:35 PM,36.7,31.8,83,30.26,10.0,East,10.4,-,N/A,,Overcast,80,2012-10-05 19:35:00
1:55 PM,36.9,31.8,82,30.26,10.0,East,12.7,-,N/A,,Overcast,90,2012-10-05 19:55:00
2:15 PM,36.5,32.0,84,30.26,10.0,ENE,12.7,-,N/A,,Overcast,70,2012-10-05 20:15:00
2:35 PM,35.8,32.0,86,30.26,10.0,ENE,10.4,-,N/A,,Overcast,60,2012-10-05 20:35:00
2:55 PM,35.2,32.0,88,30.27,10.0,NE,11.5,-,N/A,,Overcast,50,2012-10-05 20:55:00
3:15 PM,34.7,32.0,90,30.27,10.0,ENE,9.2,-,N/A,,Overcast,60,2012-10-05 21:15:00
3:35 PM,34.0,32.0,92,30.28,10.0,NE,11.5,-,N/A,,Overcast,50,2012-10-05 21:35:00
3:55 PM,33.8,32.0,93,30.28,7.0,NE,10.4,-,N/A,,Overcast,50,2012-10-05 21:55:00
4:15 PM,33.3,32.0,95,30.28,7.0,NE,9.2,-,N/A,,Overcast,40,2012-10-05 22:15:00
4:35 PM,33.4,32.4,96,30.29,5.0,NE,8.1,-,N/A,,Overcast,50,2012-10-05 22:35:00
4:55 PM,33.3,32.0,95,30.29,5.0,NE,6.9,-,N/A,,Overcast,50,2012-10-05 22:55:00
5:15 PM,33.3,32.2,96,30.30,4.0,NE,9.2,-,N/A,,Overcast,40,2012-10-05 23:15:00
5:35 PM,33.1,32.0,96,30.29,3.0,NE,9.2,-,N/A,,Overcast,50,2012-10-05 23:35:00
5:55 PM,32.9,32.0,96,30.30,3.0,NE,8.1,-,N/A,,Overcast,50,2012-10-05 23:55:00
6:15 PM,32.7,32.0,97,30.31,5.0,ENE,8.1,-,N/A,,Overcast,60,2012-10-06 00:15:00
6:35 PM,32.5,32.0,98,30.31,4.0,ENE,9.2,-,N/A,,Overcast,60,2012-10-06 00:35:00
6:55 PM,32.5,32.0,98,30.32,3.0,ENE,9.2,-,N/A,,Overcast,60,2012-10-06 00:55:00
7:15 PM,32.4,32.0,99,30.32,4.0,ENE,9.2,-,N/A,,Overcast,70,2012-10-06 01:15:00
7:35 PM,32.2,32.0,99,30.32,10.0,ENE,9.2,-,N/A,,Overcast,70,2012-10-06 01:35:00
7:55 PM,32.2,31.8,99,30.33,7.0,East,8.1,-,N/A,,Overcast,90,2012-10-06 01:55:00
8:15 PM,32.2,31.8,99,30.33,10.0,East,8.1,-,N/A,,Overcast,80,2012-10-06 02:15:00
8:35 PM,32.2,31.8,99,30.34,10.0,East,9.2,-,N/A,,Overcast,80,2012-10-06 02:35:00
8:55 PM,32.2,31.8,99,30.33,10.0,ENE,8.1,-,N/A,,Overcast,70,2012-10-06 02:55:00
9:15 PM,32.2,31.6,98,30.32,10.0,East,9.2,-,N/A,,Overcast,90,2012-10-06 03:15:00
9:35 PM,32.2,31.6,98,30.32,10.0,East,6.9,-,N/A,,Overcast,80,2012-10-06 03:35:00
9:55 PM,32.2,31.6,98,30.32,10.0,East,6.9,-,N/A,,Overcast,80,2012-10-06 03:55:00
10:15 PM,32.2,31.6,98,30.31,10.0,ENE,9.2,-,N/A,,Overcast,60,2012-10-06 04:15:00
10:35 PM,32.0,31.5,98,30.29,10.0,East,8.1,-,N/A,,Overcast,80,2012-10-06 04:35:00
10:55 PM,32.0,31.5,98,30.29,10.0,East,9.2,-,N/A,,Overcast,80,2012-10-06 04:55:00
11:15 PM,32.2,31.6,98,30.29,10.0,East,8.1,-,N/A,,Overcast,90,2012-10-06 05:15:00
11:35 PM,32.0,31.6,99,30.29,10.0,East,8.1,-,N/A,,Overcast,90,2012-10-06 05:35:00
11:55 PM,32.2,31.8,99,30.28,10.0,East,8.1,-,N/A,,Overcast,90,2012-10-06 05:55:00